Black Star — 9HA2911 — position and weather

sailwx.info

Track history (hours):
 
Tides and Currents Weather Stations Pressure Air Temp Water Temp Dewpoint Dewpoint Depression Visibility Wind Speed Wind Dir Waves Ship Positions

Black Star

Last reported at 2014-Jul-23 21:16 UTC. Time now 2014-Jul-24 14:43 UTC.
Position N 44°40' W 004°14'.

Length 128 m; draft 6.6 m.

Type: Ship (hazmat cat B). MMSI: 256714000.

Date/timePositionNaut miles runAvg speedWind from/ knotsBaromVisibWave heightAir tempDewpointWater temp
2014-Jul-23 21:16N 44°40' W 004°14'1012.7
2014-Jul-23 20:27N 44°30' W 004°10'1112.8
2014-Jul-23 19:33N 44°19' W 004°05'1312.9
2014-Jul-23 18:33N 44°07' W 004°00'1313.0
2014-Jul-23 17:33N 43°54' W 003°55'1513.2
2014-Jul-23 16:25N 43°40' W 003°49'51 2.1
2014-Jul-22 15:26N 43°38' W 005°00'1411.3
2014-Jul-22 14:14N 43°42' W 005°19'811.4
2014-Jul-22 13:32N 43°43' W 005°30'1111.4
2014-Jul-22 12:33N 43°46' W 005°45'1511.3
2014-Jul-22 11:16N 43°48' W 006°05'374 8.9
2014-Jul-20 17:21N 38°15' W 009°48'1011.3
2014-Jul-20 16:26N 38°05' W 009°45'1011.1
2014-Jul-20 15:33N 37°55' W 009°42'1111.4
2014-Jul-20 14:33N 37°44' W 009°40'7710.7
2014-Jul-20 07:20N 36°36' W 008°53'49311.2
2014-Jul-18 11:23N 37°04' E 001°23'1112.5
2014-Jul-18 10:28N 37°05' E 001°37'1412.6
2014-Jul-18 09:22N 37°07' E 001°54'1612.7
2014-Jul-18 08:06N 37°09' E 002°15'712.6
2014-Jul-18 07:32N 37°10' E 002°23'1212.3
2014-Jul-18 06:33N 37°11' E 002°38'1211.9
2014-Jul-18 05:33N 37°12' E 002°53'1312.4
2014-Jul-18 04:31N 37°14' E 003°09'1212.5
2014-Jul-18 03:33N 37°15' E 003°24'1312.1
2014-Jul-18 02:31N 37°16' E 003°40'1111.9
2014-Jul-18 01:33N 37°17' E 003°54'1212.5
2014-Jul-18 00:33N 37°18' E 004°10'1312.6
2014-Jul-17 23:33N 37°19' E 004°26'1312.8
2014-Jul-17 22:33N 37°20' E 004°42'1312.6
2014-Jul-17 21:29N 37°21' E 004°59'1612.6
2014-Jul-17 20:11N 37°23' E 005°19'812.7
2014-Jul-17 19:34N 37°24' E 005°29'1712.4
2014-Jul-17 18:12N 37°25' E 005°50'33811.6
2014-Jul-16 13:10N 37°04' E 012°54'1011.0
2014-Jul-16 12:18N 37°01' E 013°06'811.2
2014-Jul-16 11:33N 36°59' E 013°16'1111.3
2014-Jul-16 10:33N 36°56' E 013°29'1211.7
2014-Jul-16 09:33N 36°54' E 013°43'1212.0
2014-Jul-16 08:33N 36°50' E 013°58'1212.0
2014-Jul-16 07:33N 36°47' E 014°12'1211.8
2014-Jul-16 06:33N 36°44' E 014°26'1211.6
2014-Jul-16 05:34N 36°37' E 014°38'  
Track history (hours):
 
Tides and Currents Weather Stations Pressure Air Temp Water Temp Dewpoint Dewpoint Depression Visibility Wind Speed Wind Dir Waves Ship Positions

Black Star

Last reported at 2014-Jul-23 21:16 UTC. Time now 2014-Jul-24 14:43 UTC.
Position N 44°40' W 004°14'.

Length 128 m; draft 6.6 m.

Type: Ship (hazmat cat B). MMSI: 256714000.

Date/timePositionNaut miles runAvg speedWind from/ knotsBaromVisibWave heightAir tempDewpointWater temp
2014-Jul-23 21:16N 44°40' W 004°14'1012.7
2014-Jul-23 20:27N 44°30' W 004°10'1112.8
2014-Jul-23 19:33N 44°19' W 004°05'1312.9
2014-Jul-23 18:33N 44°07' W 004°00'1313.0
2014-Jul-23 17:33N 43°54' W 003°55'1513.2
2014-Jul-23 16:25N 43°40' W 003°49'51 2.1
2014-Jul-22 15:26N 43°38' W 005°00'1411.3
2014-Jul-22 14:14N 43°42' W 005°19'811.4
2014-Jul-22 13:32N 43°43' W 005°30'1111.4
2014-Jul-22 12:33N 43°46' W 005°45'1511.3
2014-Jul-22 11:16N 43°48' W 006°05'374 8.9
2014-Jul-20 17:21N 38°15' W 009°48'1011.3
2014-Jul-20 16:26N 38°05' W 009°45'1011.1
2014-Jul-20 15:33N 37°55' W 009°42'1111.4
2014-Jul-20 14:33N 37°44' W 009°40'7710.7
2014-Jul-20 07:20N 36°36' W 008°53'49311.2
2014-Jul-18 11:23N 37°04' E 001°23'1112.5
2014-Jul-18 10:28N 37°05' E 001°37'1412.6
2014-Jul-18 09:22N 37°07' E 001°54'1612.7
2014-Jul-18 08:06N 37°09' E 002°15'712.6
2014-Jul-18 07:32N 37°10' E 002°23'1212.3
2014-Jul-18 06:33N 37°11' E 002°38'1211.9
2014-Jul-18 05:33N 37°12' E 002°53'1312.4
2014-Jul-18 04:31N 37°14' E 003°09'1212.5
2014-Jul-18 03:33N 37°15' E 003°24'1312.1
2014-Jul-18 02:31N 37°16' E 003°40'1111.9
2014-Jul-18 01:33N 37°17' E 003°54'1212.5
2014-Jul-18 00:33N 37°18' E 004°10'1312.6
2014-Jul-17 23:33N 37°19' E 004°26'1312.8
2014-Jul-17 22:33N 37°20' E 004°42'1312.6
2014-Jul-17 21:29N 37°21' E 004°59'1612.6
2014-Jul-17 20:11N 37°23' E 005°19'812.7
2014-Jul-17 19:34N 37°24' E 005°29'1712.4
2014-Jul-17 18:12N 37°25' E 005°50'33811.6
2014-Jul-16 13:10N 37°04' E 012°54'1011.0
2014-Jul-16 12:18N 37°01' E 013°06'811.2
2014-Jul-16 11:33N 36°59' E 013°16'1111.3
2014-Jul-16 10:33N 36°56' E 013°29'1211.7
2014-Jul-16 09:33N 36°54' E 013°43'1212.0
2014-Jul-16 08:33N 36°50' E 013°58'1212.0
2014-Jul-16 07:33N 36°47' E 014°12'1211.8
2014-Jul-16 06:33N 36°44' E 014°26'1211.6
2014-Jul-16 05:34N 36°37' E 014°38'  

Dump ship's entire track history